createdAt,value
2022-10-31T00:00:30.264Z,101078.73
2022-10-31T00:03:22.561Z,101078.31
2022-10-31T00:05:54.893Z,101078.20
2022-10-31T00:08:27.398Z,101075.13
2022-10-31T00:10:59.554Z,101074.41
2022-10-31T00:13:31.883Z,101078.44
2022-10-31T00:16:04.204Z,101083.50
2022-10-31T00:18:36.576Z,101084.86
2022-10-31T00:21:07.501Z,101084.79
2022-10-31T00:23:39.922Z,101090.27
2022-10-31T00:26:12.305Z,101093.14
2022-10-31T00:28:45.706Z,101090.80
2022-10-31T00:31:17.973Z,101090.27
2022-10-31T00:33:50.184Z,101092.40
2022-10-31T00:36:23.105Z,101091.01
2022-10-31T00:38:55.534Z,101095.00
2022-10-31T00:41:27.844Z,101094.09
2022-10-31T00:44:00.338Z,101092.77
2022-10-31T00:46:31.015Z,101097.63
2022-10-31T00:49:03.328Z,101098.03
2022-10-31T00:51:35.646Z,101097.94
2022-10-31T00:54:08.243Z,101100.50
2022-10-31T00:56:38.753Z,101101.47
2022-10-31T00:59:11.020Z,101100.55
2022-10-31T01:01:43.542Z,101106.77
2022-10-31T01:04:15.924Z,101107.90
2022-10-31T01:06:48.177Z,101106.77
2022-10-31T01:09:20.647Z,101105.41
2022-10-31T01:11:52.921Z,101107.63
2022-10-31T01:14:25.369Z,101105.67
2022-10-31T01:16:57.643Z,101112.59
2022-10-31T01:19:30.035Z,101117.29
2022-10-31T01:22:02.225Z,101120.22
2022-10-31T01:24:34.472Z,101127.72
2022-10-31T01:27:07.048Z,101126.55
2022-10-31T01:29:37.696Z,101134.30
2022-10-31T01:32:09.977Z,101140.54
2022-10-31T01:34:42.408Z,101148.20
2022-10-31T01:37:13.249Z,101143.67
2022-10-31T01:39:45.480Z,101138.37
2022-10-31T01:42:22.462Z,101139.44
2022-10-31T01:45:06.514Z,101141.75
2022-10-31T01:47:45.641Z,101137.08
2022-10-31T01:50:27.269Z,101142.27
2022-10-31T01:52:59.737Z,101141.89
2022-10-31T01:55:30.944Z,101136.84
2022-10-31T01:58:07.283Z,101140.84
2022-10-31T02:00:39.581Z,101138.48
2022-10-31T02:03:11.841Z,101141.53
2022-10-31T02:05:45.548Z,101143.11
2022-10-31T02:08:21.096Z,101143.14
2022-10-31T02:10:53.406Z,101143.36
2022-10-31T02:16:03.623Z,101144.75
2022-10-31T02:18:35.943Z,101146.17
2022-10-31T02:21:16.470Z,101147.73
2022-10-31T02:24:18.224Z,101149.70
2022-10-31T02:27:09.792Z,101155.00
2022-10-31T02:29:58.811Z,101159.68
2022-10-31T02:32:35.707Z,101161.23
2022-10-31T02:35:14.416Z,101162.70
2022-10-31T02:37:52.368Z,101168.23
2022-10-31T02:40:28.192Z,101174.67
2022-10-31T02:43:05.040Z,101175.99
2022-10-31T02:45:41.649Z,101175.99
2022-10-31T02:48:16.763Z,101178.04
2022-10-31T02:50:55.192Z,101180.60
2022-10-31T02:53:28.143Z,101176.65
2022-10-31T02:55:59.904Z,101176.19
2022-10-31T02:58:36.057Z,101177.35
2022-10-31T03:01:55.768Z,101178.40
2022-10-31T03:04:54.792Z,101180.84
2022-10-31T03:07:34.346Z,101184.86
2022-10-31T03:10:15.304Z,101185.86
2022-10-31T03:12:52.349Z,101182.05
2022-10-31T03:15:27.682Z,101184.42
2022-10-31T03:18:04.108Z,101185.55
2022-10-31T03:20:40.783Z,101188.70
2022-10-31T03:23:16.924Z,101192.83
2022-10-31T03:25:50.533Z,101192.20
2022-10-31T03:28:26.415Z,101196.21
2022-10-31T03:31:00.409Z,101198.37
2022-10-31T03:33:37.149Z,101198.15
2022-10-31T03:36:13.112Z,101197.79
2022-10-31T03:38:46.324Z,101199.77
2022-10-31T03:41:23.415Z,101205.70
2022-10-31T03:44:00.581Z,101205.77
2022-10-31T03:46:32.988Z,101208.99
2022-10-31T03:49:05.636Z,101206.26
2022-10-31T03:51:42.459Z,101205.91
2022-10-31T03:54:19.276Z,101205.70
2022-10-31T03:56:54.641Z,101204.71
2022-10-31T03:59:28.793Z,101203.71
2022-10-31T04:02:02.740Z,101204.25
2022-10-31T04:04:35.049Z,101204.20
2022-10-31T04:07:08.220Z,101201.90
2022-10-31T04:09:42.574Z,101206.04
2022-10-31T04:12:16.896Z,101211.04
2022-10-31T04:14:51.620Z,101212.45
2022-10-31T04:17:25.726Z,101211.30
2022-10-31T04:19:57.987Z,101214.37
2022-10-31T04:22:30.667Z,101217.02
2022-10-31T04:25:02.982Z,101215.28
2022-10-31T04:27:35.331Z,101214.99
2022-10-31T04:30:09.203Z,101215.48
2022-10-31T04:32:41.471Z,101209.90
2022-10-31T04:35:13.685Z,101209.71
2022-10-31T04:37:46.047Z,101214.23
2022-10-31T04:40:18.565Z,101214.00
2022-10-31T04:42:50.695Z,101217.89
2022-10-31T04:45:22.793Z,101224.14
2022-10-31T04:47:54.879Z,101223.52
2022-10-31T04:50:27.292Z,101218.55
2022-10-31T04:52:59.584Z,101217.90
2022-10-31T04:55:31.836Z,101219.31
2022-10-31T04:58:04.908Z,101222.97
2022-10-31T05:03:52.225Z,101230.27
2022-10-31T05:06:24.489Z,101228.09
2022-10-31T05:08:56.841Z,101229.06
2022-10-31T05:11:29.145Z,101242.20
2022-10-31T05:14:01.415Z,101239.09
2022-10-31T05:16:33.700Z,101237.41
2022-10-31T05:19:06.399Z,101239.23
2022-10-31T05:21:38.648Z,101243.34
2022-10-31T05:24:11.732Z,101242.08
2022-10-31T05:26:44.124Z,101248.91
2022-10-31T05:29:16.588Z,101253.77
2022-10-31T05:31:48.922Z,101252.00
2022-10-31T05:34:21.169Z,101256.38
2022-10-31T05:36:53.360Z,101252.55
2022-10-31T05:39:25.604Z,101257.48
2022-10-31T05:41:57.814Z,101267.11
2022-10-31T05:44:30.029Z,101271.60
2022-10-31T05:47:02.386Z,101271.19
2022-10-31T05:49:34.510Z,101271.35
2022-10-31T05:52:07.103Z,101272.34
2022-10-31T05:54:39.382Z,101276.94
2022-10-31T05:57:11.687Z,101279.73
2022-10-31T05:59:43.863Z,101284.45
2022-10-31T06:02:15.998Z,101286.16
2022-10-31T06:04:48.578Z,101286.77
2022-10-31T06:07:21.528Z,101292.27
2022-10-31T06:09:54.259Z,101293.77
2022-10-31T06:12:27.138Z,101299.17
2022-10-31T06:17:45.780Z,101307.63
2022-10-31T06:20:18.430Z,101305.89
2022-10-31T06:22:51.428Z,101304.27
2022-10-31T06:25:24.210Z,101305.65
2022-10-31T06:27:59.449Z,101307.77
2022-10-31T06:30:34.756Z,101307.56
2022-10-31T06:34:58.999Z,101308.36
2022-10-31T06:37:31.450Z,101308.92
2022-10-31T06:40:09.362Z,101305.52
2022-10-31T06:42:41.674Z,101301.41
2022-10-31T06:45:18.299Z,101295.41
2022-10-31T06:48:17.032Z,101290.20
2022-10-31T06:50:48.500Z,101299.15
2022-10-31T06:53:23.065Z,101307.88
2022-10-31T06:55:58.975Z,101315.00
2022-10-31T06:58:31.303Z,101318.60
2022-10-31T07:01:05.983Z,101318.19
2022-10-31T07:03:38.365Z,101318.30
2022-10-31T07:06:09.077Z,101318.69
2022-10-31T07:08:41.134Z,101315.18
2022-10-31T07:11:13.178Z,101322.81
2022-10-31T07:13:45.565Z,101325.20
2022-10-31T07:16:17.708Z,101326.21
2022-10-31T07:18:50.289Z,101324.30
2022-10-31T07:21:20.759Z,101330.81
2022-10-31T07:23:53.243Z,101323.04
2022-10-31T07:26:23.724Z,101325.52
2022-10-31T07:28:55.821Z,101322.79
2022-10-31T07:31:27.923Z,101323.13
2022-10-31T07:34:00.763Z,101324.18
2022-10-31T07:36:33.113Z,101325.63
2022-10-31T07:39:05.714Z,101320.18
2022-10-31T07:41:36.202Z,101318.07
2022-10-31T07:44:08.660Z,101318.96
2022-10-31T07:46:39.115Z,101321.22
2022-10-31T07:49:11.268Z,101323.81
2022-10-31T07:51:46.461Z,101328.42
2022-10-31T07:54:18.942Z,101327.72
2022-10-31T07:56:51.052Z,101334.77
2022-10-31T07:59:27.085Z,101334.41
2022-10-31T08:01:59.243Z,101334.38
2022-10-31T08:04:31.448Z,101334.20
2022-10-31T08:07:03.595Z,101336.94
2022-10-31T08:09:35.888Z,101339.80
2022-10-31T08:12:08.565Z,101336.66
2022-10-31T08:14:40.700Z,101334.58
2022-10-31T08:17:12.766Z,101340.09
2022-10-31T08:19:45.021Z,101339.06
2022-10-31T08:22:17.224Z,101336.84
2022-10-31T08:24:49.496Z,101336.08
2022-10-31T08:27:21.767Z,101340.44
2022-10-31T08:29:53.856Z,101339.22
2022-10-31T08:32:26.082Z,101341.96
2022-10-31T08:34:58.430Z,101344.13
2022-10-31T08:37:30.651Z,101342.83
2022-10-31T08:40:02.885Z,101341.92
2022-10-31T08:42:33.588Z,101335.17
2022-10-31T08:45:06.221Z,101331.55
2022-10-31T08:47:38.447Z,101329.62
2022-10-31T08:50:11.416Z,101333.06
2022-10-31T08:53:03.451Z,101333.42
2022-10-31T08:55:37.107Z,101330.75
2022-10-31T08:58:11.548Z,101335.02
2022-10-31T09:00:44.064Z,101334.27
2022-10-31T09:03:14.975Z,101330.80
2022-10-31T09:05:47.200Z,101327.73
2022-10-31T09:08:19.752Z,101324.29
2022-10-31T09:10:52.082Z,101327.44
2022-10-31T09:13:27.996Z,101332.13
2022-10-31T09:16:00.975Z,101331.59
2022-10-31T09:18:33.015Z,101331.56
2022-10-31T09:21:05.526Z,101332.23
2022-10-31T09:23:35.989Z,101328.49
2022-10-31T09:26:08.253Z,101329.52
2022-10-31T09:28:40.523Z,101329.93
2022-10-31T09:31:12.655Z,101332.96
2022-10-31T09:33:44.765Z,101331.33
2022-10-31T09:36:19.170Z,101328.77
2022-10-31T09:38:51.459Z,101325.01
2022-10-31T09:41:27.771Z,101328.81
2022-10-31T09:44:04.242Z,101329.02
2022-10-31T09:46:41.445Z,101328.39
2022-10-31T09:49:35.539Z,101324.31
2022-10-31T09:52:15.614Z,101330.23
2022-10-31T09:54:50.599Z,101326.33
2022-10-31T09:57:27.547Z,101317.67
2022-10-31T10:00:00.537Z,101320.77
2022-10-31T10:02:37.199Z,101316.91
2022-10-31T10:05:14.184Z,101312.20
2022-10-31T10:07:52.270Z,101312.44
2022-10-31T10:10:30.260Z,101306.69
2022-10-31T10:13:14.453Z,101308.86
2022-10-31T10:16:25.046Z,101304.30
2022-10-31T10:19:08.475Z,101302.27
2022-10-31T10:21:48.096Z,101300.09
2022-10-31T10:24:30.467Z,101300.88
2022-10-31T10:27:02.016Z,101296.63
2022-10-31T10:29:43.180Z,101294.68
2022-10-31T10:32:20.182Z,101291.77
2022-10-31T10:34:55.707Z,101292.48
2022-10-31T10:37:33.114Z,101286.05
2022-10-31T10:40:13.890Z,101276.39
2022-10-31T10:43:06.569Z,101273.36
2022-10-31T10:45:56.266Z,101273.03
2022-10-31T10:48:41.687Z,101270.22
2022-10-31T10:51:38.689Z,101269.62
2022-10-31T10:54:23.498Z,101266.02
2022-10-31T10:57:06.326Z,101263.96
2022-10-31T10:59:39.049Z,101264.03
2022-10-31T11:02:22.644Z,101267.92
2022-10-31T11:04:56.858Z,101267.89
2022-10-31T11:07:39.242Z,101264.39
2022-10-31T11:10:17.249Z,101261.73
2022-10-31T11:13:03.338Z,101261.66
2022-10-31T11:15:40.724Z,101256.06
2022-10-31T11:21:03.841Z,101249.19
2022-10-31T11:23:36.787Z,101245.70
2022-10-31T11:26:17.326Z,101241.17
2022-10-31T11:29:00.750Z,101240.05
2022-10-31T11:31:33.950Z,101238.91
2022-10-31T11:34:07.683Z,101233.36
2022-10-31T11:36:41.833Z,101229.16
2022-10-31T11:39:21.562Z,101229.41
2022-10-31T11:41:54.676Z,101223.26
2022-10-31T11:44:30.150Z,101223.58
2022-10-31T11:47:04.255Z,101220.77
2022-10-31T11:49:39.091Z,101216.83
2022-10-31T11:52:15.758Z,101215.39
2022-10-31T11:54:51.109Z,101213.60
2022-10-31T11:57:32.704Z,101211.30
2022-10-31T12:00:06.787Z,101215.70
2022-10-31T12:02:39.076Z,101213.16
2022-10-31T12:05:21.141Z,101208.58
2022-10-31T12:07:54.003Z,101209.57
2022-10-31T12:10:30.038Z,101204.00
2022-10-31T12:13:08.409Z,101207.94
2022-10-31T12:15:42.255Z,101201.11
2022-10-31T12:18:27.877Z,101204.60
2022-10-31T12:21:09.206Z,101202.58
2022-10-31T12:24:07.653Z,101204.58
2022-10-31T12:26:48.590Z,101204.07
2022-10-31T12:29:34.813Z,101200.70
2022-10-31T12:32:20.337Z,101200.26
2022-10-31T12:35:22.071Z,101198.44
2022-10-31T12:38:05.024Z,101196.14
2022-10-31T12:40:47.915Z,101202.86
2022-10-31T12:43:37.035Z,101200.34
2022-10-31T12:46:13.333Z,101201.01
2022-10-31T12:49:05.938Z,101199.34
2022-10-31T12:51:45.857Z,101203.20
2022-10-31T12:54:34.738Z,101201.92
2022-10-31T12:57:13.276Z,101201.81
2022-10-31T12:59:48.402Z,101202.07
2022-10-31T13:02:24.270Z,101199.55
2022-10-31T13:04:59.865Z,101200.52
2022-10-31T13:07:37.193Z,101199.45
2022-10-31T13:10:16.240Z,101199.19
2022-10-31T13:12:51.546Z,101195.11
2022-10-31T13:15:25.873Z,101196.67
2022-10-31T13:18:00.145Z,101199.79
2022-10-31T13:20:34.301Z,101195.42
2022-10-31T13:23:23.889Z,101198.53
2022-10-31T13:26:09.344Z,101200.48
2022-10-31T13:28:46.302Z,101200.75
2022-10-31T13:31:18.823Z,101198.75
2022-10-31T13:33:53.921Z,101200.05
2022-10-31T13:36:31.391Z,101196.34
2022-10-31T13:39:21.128Z,101203.66
2022-10-31T13:41:55.971Z,101202.36
2022-10-31T13:44:31.311Z,101200.42
2022-10-31T13:47:20.298Z,101199.84
2022-10-31T13:49:52.933Z,101201.77
2022-10-31T13:52:28.883Z,101197.45
2022-10-31T13:55:01.055Z,101193.55
2022-10-31T13:57:34.879Z,101192.61
2022-10-31T14:00:27.449Z,101196.29
2022-10-31T14:02:58.463Z,101197.40
2022-10-31T14:05:32.571Z,101198.46
2022-10-31T14:08:07.201Z,101204.69
2022-10-31T14:10:41.110Z,101200.99
2022-10-31T14:13:20.500Z,101198.52
2022-10-31T14:15:59.048Z,101201.17
2022-10-31T14:18:34.587Z,101206.13
2022-10-31T14:21:18.106Z,101208.95
2022-10-31T14:23:52.489Z,101212.66
2022-10-31T14:26:37.576Z,101211.64
2022-10-31T14:29:25.822Z,101213.60
2022-10-31T14:32:00.943Z,101209.62
2022-10-31T14:34:35.753Z,101211.97
2022-10-31T14:37:35.048Z,101210.61
2022-10-31T14:40:29.768Z,101207.52
2022-10-31T14:43:29.910Z,101209.07
2022-10-31T14:46:05.351Z,101209.46
2022-10-31T14:48:59.234Z,101211.13
2022-10-31T14:51:38.510Z,101208.89
2022-10-31T14:54:15.389Z,101210.02
2022-10-31T14:56:52.654Z,101207.52
2022-10-31T14:59:27.103Z,101208.09
2022-10-31T15:02:01.379Z,101211.20
2022-10-31T15:04:36.681Z,101213.14
2022-10-31T15:07:13.715Z,101213.25
2022-10-31T15:09:46.625Z,101213.11
2022-10-31T15:12:27.535Z,101216.80
2022-10-31T15:15:00.622Z,101212.70
2022-10-31T15:17:32.805Z,101215.39
2022-10-31T15:20:05.036Z,101221.68
2022-10-31T15:22:37.683Z,101222.84
2022-10-31T15:25:18.819Z,101221.56
2022-10-31T15:27:52.175Z,101220.41
2022-10-31T15:30:26.627Z,101223.13
2022-10-31T15:32:59.454Z,101223.40
2022-10-31T15:35:32.712Z,101223.08
2022-10-31T15:38:05.262Z,101224.30
2022-10-31T15:40:37.635Z,101226.34
2022-10-31T15:43:09.746Z,101229.52
2022-10-31T15:45:41.856Z,101231.55
2022-10-31T15:48:20.639Z,101231.91
2022-10-31T15:50:54.651Z,101238.70
2022-10-31T15:53:29.961Z,101238.09
2022-10-31T15:56:05.158Z,101242.52
2022-10-31T15:58:44.187Z,101246.69
2022-10-31T16:01:26.137Z,101245.27
2022-10-31T16:04:22.044Z,101246.25
2022-10-31T16:07:03.121Z,101250.46
2022-10-31T16:09:35.302Z,101256.77
2022-10-31T16:12:07.660Z,101259.14
2022-10-31T16:14:38.022Z,101259.55
2022-10-31T16:17:15.604Z,101264.30
2022-10-31T16:19:55.073Z,101266.22
2022-10-31T16:22:30.066Z,101267.09
2022-10-31T16:25:07.217Z,101270.73
2022-10-31T16:27:40.634Z,101271.85
2022-10-31T16:30:43.963Z,101278.23
2022-10-31T16:33:29.541Z,101281.66
2022-10-31T16:36:22.428Z,101281.66
2022-10-31T16:38:55.534Z,101289.80
2022-10-31T16:41:28.582Z,101287.70
2022-10-31T16:44:02.552Z,101289.49
2022-10-31T16:46:34.721Z,101294.36
2022-10-31T16:49:06.823Z,101291.39
2022-10-31T16:51:39.008Z,101292.27
2022-10-31T16:54:11.925Z,101297.04
2022-10-31T16:56:45.674Z,101297.48
2022-10-31T16:59:17.925Z,101298.41
2022-10-31T17:01:52.494Z,101300.05
2022-10-31T17:04:25.210Z,101300.24
2022-10-31T17:06:55.772Z,101300.42
2022-10-31T17:09:28.073Z,101301.80
2022-10-31T17:11:58.705Z,101304.17
2022-10-31T17:14:31.183Z,101308.27
2022-10-31T17:17:06.268Z,101309.91
2022-10-31T17:19:38.645Z,101310.13
2022-10-31T17:22:13.357Z,101313.93
2022-10-31T17:24:45.460Z,101318.11
2022-10-31T17:27:17.739Z,101318.62
2022-10-31T17:29:48.409Z,101319.70
2022-10-31T17:32:21.031Z,101321.23
2022-10-31T17:34:53.259Z,101322.80
2022-10-31T17:37:25.396Z,101318.52
2022-10-31T17:39:57.774Z,101320.98
2022-10-31T17:42:29.997Z,101325.27
2022-10-31T17:45:02.217Z,101326.41
2022-10-31T17:47:34.515Z,101325.60
2022-10-31T17:50:07.500Z,101327.02
2022-10-31T17:52:39.711Z,101330.29
2022-10-31T17:55:12.780Z,101332.05
2022-10-31T17:57:45.184Z,101332.03
2022-10-31T18:00:24.388Z,101332.52
2022-10-31T18:02:56.580Z,101333.42
2022-10-31T18:05:28.728Z,101333.66
2022-10-31T18:08:04.109Z,101339.32
2022-10-31T18:10:36.731Z,101339.42
2022-10-31T18:13:08.924Z,101340.94
2022-10-31T18:15:43.575Z,101341.88
2022-10-31T18:18:15.959Z,101341.75
2022-10-31T18:20:48.124Z,101341.04
2022-10-31T18:23:20.300Z,101344.77
2022-10-31T18:25:52.419Z,101343.99
2022-10-31T18:28:24.604Z,101343.89
2022-10-31T18:30:56.777Z,101345.58
2022-10-31T18:33:29.094Z,101347.59
2022-10-31T18:36:07.708Z,101347.48
2022-10-31T18:38:42.471Z,101348.44
2022-10-31T18:41:15.645Z,101350.27
2022-10-31T18:43:50.718Z,101350.08
2022-10-31T18:46:22.877Z,101351.69
2022-10-31T18:49:19.434Z,101352.88
2022-10-31T18:52:10.210Z,101354.53
2022-10-31T18:54:59.637Z,101355.77
2022-10-31T18:57:33.448Z,101356.20
2022-10-31T19:00:17.982Z,101358.89
2022-10-31T19:03:11.088Z,101363.35
2022-10-31T19:06:02.960Z,101363.83
2022-10-31T19:08:35.357Z,101370.16
2022-10-31T19:11:11.727Z,101372.20
2022-10-31T19:13:44.383Z,101372.81
2022-10-31T19:16:17.784Z,101371.77
2022-10-31T19:18:51.259Z,101370.55
2022-10-31T19:21:23.478Z,101374.04
2022-10-31T19:23:58.632Z,101380.94
2022-10-31T19:26:31.198Z,101383.30
2022-10-31T19:29:05.071Z,101384.17
2022-10-31T19:31:37.298Z,101387.20
2022-10-31T19:34:09.558Z,101388.09
2022-10-31T19:36:43.072Z,101390.23
2022-10-31T19:39:22.260Z,101390.48
2022-10-31T19:41:58.461Z,101393.20
2022-10-31T19:44:51.562Z,101392.90
2022-10-31T19:47:28.621Z,101394.84
2022-10-31T19:50:06.852Z,101394.61
2022-10-31T19:52:43.845Z,101396.15
2022-10-31T19:55:19.483Z,101402.63
2022-10-31T19:58:01.761Z,101404.46
2022-10-31T20:00:34.914Z,101407.36
2022-10-31T20:03:07.347Z,101413.27
2022-10-31T20:05:42.778Z,101415.29
2022-10-31T20:08:17.695Z,101415.36
2022-10-31T20:10:58.654Z,101417.68
2022-10-31T20:13:36.185Z,101415.20
2022-10-31T20:16:12.161Z,101421.64
2022-10-31T20:18:48.251Z,101419.64
2022-10-31T20:21:23.503Z,101426.11
2022-10-31T20:24:05.501Z,101428.98
2022-10-31T20:26:45.057Z,101430.52
2022-10-31T20:29:20.198Z,101430.73
2022-10-31T20:31:57.288Z,101432.52
2022-10-31T20:34:33.996Z,101433.05
2022-10-31T20:37:14.114Z,101434.68
2022-10-31T20:39:46.599Z,101434.43
2022-10-31T20:42:22.857Z,101434.59
2022-10-31T20:44:55.719Z,101436.88
2022-10-31T20:47:32.136Z,101438.63
2022-10-31T20:50:09.272Z,101439.06
2022-10-31T20:52:43.895Z,101438.62
2022-10-31T20:55:19.988Z,101438.65
2022-10-31T20:57:59.094Z,101443.98
2022-10-31T21:00:37.115Z,101443.65
2022-10-31T21:03:17.296Z,101443.69
2022-10-31T21:06:08.643Z,101447.27
2022-10-31T21:08:48.952Z,101449.86
2022-10-31T21:11:23.140Z,101450.67
2022-10-31T21:13:57.677Z,101449.20
2022-10-31T21:16:32.466Z,101453.05
2022-10-31T21:19:13.157Z,101447.59
2022-10-31T21:21:45.919Z,101447.23
2022-10-31T21:24:20.565Z,101451.90
2022-10-31T21:26:53.986Z,101452.15
2022-10-31T21:29:26.306Z,101455.67
2022-10-31T21:31:58.536Z,101459.29
2022-10-31T21:34:30.860Z,101461.59
2022-10-31T21:37:03.110Z,101460.74
2022-10-31T21:39:35.445Z,101462.67
2022-10-31T21:42:07.857Z,101461.95
2022-10-31T21:44:40.178Z,101459.21
2022-10-31T21:47:12.512Z,101465.65
2022-10-31T21:49:44.698Z,101469.77
2022-10-31T21:52:16.911Z,101465.80
2022-10-31T21:54:49.170Z,101466.16
2022-10-31T21:59:54.782Z,101471.77
2022-10-31T22:02:27.000Z,101470.79
2022-10-31T22:04:59.220Z,101470.54
2022-10-31T22:07:32.299Z,101468.24
2022-10-31T22:10:04.650Z,101469.17
2022-10-31T22:12:36.833Z,101476.38
2022-10-31T22:15:10.154Z,101475.59
2022-10-31T22:17:42.356Z,101475.41
2022-10-31T22:20:14.903Z,101474.23
2022-10-31T22:22:45.593Z,101473.79
2022-10-31T22:25:17.943Z,101477.85
2022-10-31T22:27:50.138Z,101480.05
2022-10-31T22:30:22.657Z,101483.35
2022-10-31T22:32:54.938Z,101483.98
2022-10-31T22:35:27.169Z,101489.02
2022-10-31T22:37:59.435Z,101490.54
2022-10-31T22:40:31.568Z,101489.36
2022-10-31T22:43:04.183Z,101491.77
2022-10-31T22:45:36.972Z,101492.00
2022-10-31T22:48:09.535Z,101489.05
2022-10-31T22:50:40.064Z,101490.64
2022-10-31T22:53:16.068Z,101491.19
2022-10-31T22:55:50.731Z,101490.61
2022-10-31T22:58:22.878Z,101486.90
2022-10-31T23:00:55.443Z,101491.04
2022-10-31T23:03:28.118Z,101493.12
2022-10-31T23:06:01.441Z,101494.60
2022-10-31T23:08:35.850Z,101491.98
2022-10-31T23:11:16.432Z,101494.52
2022-10-31T23:14:07.847Z,101492.48
2022-10-31T23:16:42.390Z,101500.05
2022-10-31T23:19:15.836Z,101497.92
2022-10-31T23:22:01.050Z,101504.89
2022-10-31T23:24:36.813Z,101508.35
2022-10-31T23:27:12.303Z,101510.05
2022-10-31T23:29:48.612Z,101507.39
2022-10-31T23:32:23.352Z,101515.22
2022-10-31T23:34:56.674Z,101516.00
2022-10-31T23:37:31.431Z,101515.23
2022-10-31T23:40:03.765Z,101521.45
2022-10-31T23:42:35.898Z,101518.71
2022-10-31T23:45:10.772Z,101518.81
2022-10-31T23:47:43.515Z,101516.37
2022-10-31T23:50:15.916Z,101520.05
2022-10-31T23:52:48.140Z,101524.17
2022-10-31T23:55:20.664Z,101522.94
2022-10-31T23:57:52.953Z,101529.16
